sensor_id;sensor_type;location;lat;lon;timestamp;P1;durP1;ratioP1;P2;durP2;ratioP2
505;SDS011;551;48.524;9.056;2022-11-15T00:01:40;10.40;;;7.70;;
505;SDS011;551;48.524;9.056;2022-11-15T00:04:05;12.90;;;8.93;;
505;SDS011;551;48.524;9.056;2022-11-15T00:06:31;11.27;;;8.97;;
505;SDS011;551;48.524;9.056;2022-11-15T00:08:58;9.90;;;8.37;;
505;SDS011;551;48.524;9.056;2022-11-15T00:11:24;12.50;;;8.77;;
505;SDS011;551;48.524;9.056;2022-11-15T00:13:49;12.33;;;9.57;;
505;SDS011;551;48.524;9.056;2022-11-15T00:16:15;13.70;;;9.63;;
505;SDS011;551;48.524;9.056;2022-11-15T00:18:40;15.20;;;9.70;;
505;SDS011;551;48.524;9.056;2022-11-15T00:21:07;16.73;;;9.13;;
505;SDS011;551;48.524;9.056;2022-11-15T00:23:35;13.90;;;9.70;;
505;SDS011;551;48.524;9.056;2022-11-15T00:26:01;13.13;;;8.73;;
505;SDS011;551;48.524;9.056;2022-11-15T00:28:26;15.47;;;8.70;;
505;SDS011;551;48.524;9.056;2022-11-15T00:30:52;12.13;;;8.77;;
505;SDS011;551;48.524;9.056;2022-11-15T00:33:18;16.37;;;9.37;;
505;SDS011;551;48.524;9.056;2022-11-15T00:35:43;11.33;;;8.37;;
505;SDS011;551;48.524;9.056;2022-11-15T00:38:09;8.63;;;6.83;;
505;SDS011;551;48.524;9.056;2022-11-15T00:40:34;9.23;;;6.90;;
505;SDS011;551;48.524;9.056;2022-11-15T00:43:00;7.80;;;6.50;;
505;SDS011;551;48.524;9.056;2022-11-15T00:45:26;9.60;;;6.60;;
505;SDS011;551;48.524;9.056;2022-11-15T00:47:51;8.20;;;6.80;;
505;SDS011;551;48.524;9.056;2022-11-15T00:50:17;8.70;;;5.73;;
505;SDS011;551;48.524;9.056;2022-11-15T00:52:44;22.33;;;7.30;;
505;SDS011;551;48.524;9.056;2022-11-15T00:55:13;41.30;;;7.33;;
505;SDS011;551;48.524;9.056;2022-11-15T00:57:40;10.23;;;5.80;;
505;SDS011;551;48.524;9.056;2022-11-15T01:00:06;9.53;;;6.00;;
505;SDS011;551;48.524;9.056;2022-11-15T01:02:32;52.40;;;8.10;;
505;SDS011;551;48.524;9.056;2022-11-15T01:04:58;23.13;;;6.53;;
505;SDS011;551;48.524;9.056;2022-11-15T01:07:23;8.67;;;6.13;;
505;SDS011;551;48.524;9.056;2022-11-15T01:09:49;6.40;;;5.07;;
505;SDS011;551;48.524;9.056;2022-11-15T01:12:14;9.40;;;6.00;;
505;SDS011;551;48.524;9.056;2022-11-15T01:14:40;16.40;;;6.73;;
505;SDS011;551;48.524;9.056;2022-11-15T01:17:05;13.10;;;6.90;;
505;SDS011;551;48.524;9.056;2022-11-15T01:19:31;8.17;;;7.00;;
505;SDS011;551;48.524;9.056;2022-11-15T01:21:56;9.50;;;7.10;;
505;SDS011;551;48.524;9.056;2022-11-15T01:24:22;11.33;;;6.80;;
505;SDS011;551;48.524;9.056;2022-11-15T01:26:47;7.60;;;6.70;;
505;SDS011;551;48.524;9.056;2022-11-15T01:29:13;10.27;;;6.43;;
505;SDS011;551;48.524;9.056;2022-11-15T01:31:38;9.23;;;7.17;;
505;SDS011;551;48.524;9.056;2022-11-15T01:34:04;7.80;;;6.00;;
505;SDS011;551;48.524;9.056;2022-11-15T01:36:29;8.90;;;6.43;;
505;SDS011;551;48.524;9.056;2022-11-15T01:38:55;10.20;;;7.00;;
505;SDS011;551;48.524;9.056;2022-11-15T01:41:26;9.90;;;7.73;;
505;SDS011;551;48.524;9.056;2022-11-15T01:43:54;13.00;;;8.00;;
505;SDS011;551;48.524;9.056;2022-11-15T01:46:26;8.87;;;6.40;;
505;SDS011;551;48.524;9.056;2022-11-15T01:49:00;9.73;;;6.70;;
505;SDS011;551;48.524;9.056;2022-11-15T01:51:30;9.53;;;6.60;;
505;SDS011;551;48.524;9.056;2022-11-15T01:53:59;9.20;;;6.73;;
505;SDS011;551;48.524;9.056;2022-11-15T01:56:31;10.07;;;7.00;;
505;SDS011;551;48.524;9.056;2022-11-15T01:59:01;8.10;;;6.53;;
505;SDS011;551;48.524;9.056;2022-11-15T02:01:28;12.47;;;8.37;;
505;SDS011;551;48.524;9.056;2022-11-15T02:04:02;10.23;;;7.20;;
505;SDS011;551;48.524;9.056;2022-11-15T02:06:34;12.20;;;8.33;;
505;SDS011;551;48.524;9.056;2022-11-15T02:09:00;8.10;;;7.13;;
505;SDS011;551;48.524;9.056;2022-11-15T02:11:26;9.93;;;7.33;;
505;SDS011;551;48.524;9.056;2022-11-15T02:13:51;9.90;;;7.60;;
505;SDS011;551;48.524;9.056;2022-11-15T02:19:28;9.57;;;6.97;;
505;SDS011;551;48.524;9.056;2022-11-15T02:24:54;9.43;;;7.03;;
505;SDS011;551;48.524;9.056;2022-11-15T02:30:30;13.07;;;8.90;;
505;SDS011;551;48.524;9.056;2022-11-15T02:33:12;10.40;;;7.47;;
505;SDS011;551;48.524;9.056;2022-11-15T02:35:57;9.70;;;6.60;;
505;SDS011;551;48.524;9.056;2022-11-15T02:38:31;15.60;;;8.03;;
505;SDS011;551;48.524;9.056;2022-11-15T02:41:03;13.00;;;7.80;;
505;SDS011;551;48.524;9.056;2022-11-15T02:43:45;11.70;;;8.00;;
505;SDS011;551;48.524;9.056;2022-11-15T02:46:31;11.03;;;7.67;;
505;SDS011;551;48.524;9.056;2022-11-15T02:49:20;15.80;;;9.40;;
505;SDS011;551;48.524;9.056;2022-11-15T02:51:47;18.13;;;9.73;;
505;SDS011;551;48.524;9.056;2022-11-15T02:54:18;12.40;;;8.10;;
505;SDS011;551;48.524;9.056;2022-11-15T02:56:47;11.50;;;8.30;;
505;SDS011;551;48.524;9.056;2022-11-15T02:59:19;15.53;;;8.53;;
505;SDS011;551;48.524;9.056;2022-11-15T03:04:29;15.67;;;7.93;;
505;SDS011;551;48.524;9.056;2022-11-15T03:07:01;11.93;;;8.50;;
505;SDS011;551;48.524;9.056;2022-11-15T03:09:40;12.37;;;7.90;;
505;SDS011;551;48.524;9.056;2022-11-15T03:12:14;13.30;;;8.33;;
505;SDS011;551;48.524;9.056;2022-11-15T03:15:01;12.87;;;8.50;;
505;SDS011;551;48.524;9.056;2022-11-15T03:17:49;11.63;;;7.70;;
505;SDS011;551;48.524;9.056;2022-11-15T03:20:20;13.93;;;8.93;;
505;SDS011;551;48.524;9.056;2022-11-15T03:22:46;14.13;;;8.73;;
505;SDS011;551;48.524;9.056;2022-11-15T03:25:17;9.83;;;8.03;;
505;SDS011;551;48.524;9.056;2022-11-15T03:27:46;10.77;;;8.83;;
505;SDS011;551;48.524;9.056;2022-11-15T03:30:16;12.80;;;8.20;;
505;SDS011;551;48.524;9.056;2022-11-15T03:32:50;11.20;;;8.70;;
505;SDS011;551;48.524;9.056;2022-11-15T03:35:22;12.63;;;9.03;;
505;SDS011;551;48.524;9.056;2022-11-15T03:40:45;13.70;;;8.83;;
505;SDS011;551;48.524;9.056;2022-11-15T03:43:30;13.50;;;7.90;;
505;SDS011;551;48.524;9.056;2022-11-15T03:49:23;13.27;;;8.13;;
505;SDS011;551;48.524;9.056;2022-11-15T03:51:53;16.53;;;8.80;;
505;SDS011;551;48.524;9.056;2022-11-15T03:54:22;10.83;;;7.03;;
505;SDS011;551;48.524;9.056;2022-11-15T03:56:48;16.53;;;8.47;;
505;SDS011;551;48.524;9.056;2022-11-15T03:59:13;12.30;;;8.23;;
505;SDS011;551;48.524;9.056;2022-11-15T04:01:40;13.20;;;7.73;;
505;SDS011;551;48.524;9.056;2022-11-15T04:04:05;10.03;;;7.40;;
505;SDS011;551;48.524;9.056;2022-11-15T04:06:31;11.30;;;7.00;;
505;SDS011;551;48.524;9.056;2022-11-15T04:08:56;8.40;;;6.43;;
505;SDS011;551;48.524;9.056;2022-11-15T04:11:22;11.63;;;8.33;;
505;SDS011;551;48.524;9.056;2022-11-15T04:13:47;12.33;;;7.63;;
505;SDS011;551;48.524;9.056;2022-11-15T04:16:13;11.13;;;6.50;;
505;SDS011;551;48.524;9.056;2022-11-15T04:18:38;16.17;;;7.93;;
505;SDS011;551;48.524;9.056;2022-11-15T04:21:04;10.97;;;8.50;;
505;SDS011;551;48.524;9.056;2022-11-15T04:23:48;10.20;;;7.17;;
505;SDS011;551;48.524;9.056;2022-11-15T04:26:21;11.93;;;7.70;;
505;SDS011;551;48.524;9.056;2022-11-15T04:28:47;10.90;;;8.20;;
505;SDS011;551;48.524;9.056;2022-11-15T04:31:31;9.53;;;7.67;;
505;SDS011;551;48.524;9.056;2022-11-15T04:33:57;11.70;;;7.87;;
505;SDS011;551;48.524;9.056;2022-11-15T04:36:23;11.30;;;7.60;;
505;SDS011;551;48.524;9.056;2022-11-15T04:39:07;8.90;;;7.10;;
505;SDS011;551;48.524;9.056;2022-11-15T04:41:33;14.77;;;8.33;;
505;SDS011;551;48.524;9.056;2022-11-15T04:43:59;9.23;;;7.57;;
505;SDS011;551;48.524;9.056;2022-11-15T04:46:24;13.77;;;8.80;;
505;SDS011;551;48.524;9.056;2022-11-15T04:48:51;12.73;;;8.00;;
505;SDS011;551;48.524;9.056;2022-11-15T04:51:17;11.77;;;8.43;;
505;SDS011;551;48.524;9.056;2022-11-15T04:53:43;10.07;;;8.23;;
505;SDS011;551;48.524;9.056;2022-11-15T04:56:09;8.70;;;7.60;;
505;SDS011;551;48.524;9.056;2022-11-15T04:58:35;9.37;;;7.67;;
505;SDS011;551;48.524;9.056;2022-11-15T05:01:07;9.70;;;7.50;;
505;SDS011;551;48.524;9.056;2022-11-15T05:03:33;11.23;;;8.77;;
505;SDS011;551;48.524;9.056;2022-11-15T05:06:17;9.40;;;8.23;;
505;SDS011;551;48.524;9.056;2022-11-15T05:08:43;9.57;;;8.67;;
505;SDS011;551;48.524;9.056;2022-11-15T05:11:09;10.90;;;7.40;;
505;SDS011;551;48.524;9.056;2022-11-15T05:13:34;10.67;;;8.30;;
505;SDS011;551;48.524;9.056;2022-11-15T05:15:59;8.80;;;7.83;;
505;SDS011;551;48.524;9.056;2022-11-15T05:18:25;9.53;;;7.77;;
505;SDS011;551;48.524;9.056;2022-11-15T05:20:51;11.97;;;9.97;;
505;SDS011;551;48.524;9.056;2022-11-15T05:23:16;10.43;;;9.00;;
505;SDS011;551;48.524;9.056;2022-11-15T05:25:42;12.00;;;7.43;;
505;SDS011;551;48.524;9.056;2022-11-15T05:28:07;11.00;;;8.37;;
505;SDS011;551;48.524;9.056;2022-11-15T05:30:33;10.60;;;7.97;;
505;SDS011;551;48.524;9.056;2022-11-15T05:32:58;9.13;;;7.13;;
505;SDS011;551;48.524;9.056;2022-11-15T05:35:32;14.70;;;8.40;;
505;SDS011;551;48.524;9.056;2022-11-15T05:38:03;14.37;;;8.60;;
505;SDS011;551;48.524;9.056;2022-11-15T05:40:29;13.10;;;7.77;;
505;SDS011;551;48.524;9.056;2022-11-15T05:42:56;11.23;;;7.60;;
505;SDS011;551;48.524;9.056;2022-11-15T05:45:22;13.13;;;8.20;;
505;SDS011;551;48.524;9.056;2022-11-15T05:47:48;14.53;;;8.30;;
505;SDS011;551;48.524;9.056;2022-11-15T05:50:15;13.70;;;8.30;;
505;SDS011;551;48.524;9.056;2022-11-15T05:52:42;12.60;;;8.73;;
505;SDS011;551;48.524;9.056;2022-11-15T05:55:11;12.73;;;8.93;;
505;SDS011;551;48.524;9.056;2022-11-15T05:57:37;11.70;;;9.10;;
505;SDS011;551;48.524;9.056;2022-11-15T06:00:03;12.03;;;8.87;;
505;SDS011;551;48.524;9.056;2022-11-15T06:02:29;21.60;;;8.77;;
505;SDS011;551;48.524;9.056;2022-11-15T06:04:55;11.37;;;8.93;;
505;SDS011;551;48.524;9.056;2022-11-15T06:07:21;12.57;;;9.03;;
505;SDS011;551;48.524;9.056;2022-11-15T06:09:46;13.67;;;9.70;;
505;SDS011;551;48.524;9.056;2022-11-15T06:12:12;11.07;;;9.70;;
505;SDS011;551;48.524;9.056;2022-11-15T06:14:38;10.57;;;9.47;;
505;SDS011;551;48.524;9.056;2022-11-15T06:17:03;12.87;;;8.87;;
505;SDS011;551;48.524;9.056;2022-11-15T06:19:29;14.93;;;9.63;;
505;SDS011;551;48.524;9.056;2022-11-15T06:21:57;13.50;;;8.87;;
505;SDS011;551;48.524;9.056;2022-11-15T06:24:24;13.53;;;10.03;;
505;SDS011;551;48.524;9.056;2022-11-15T06:26:49;12.30;;;9.60;;
505;SDS011;551;48.524;9.056;2022-11-15T06:29:15;12.67;;;8.43;;
505;SDS011;551;48.524;9.056;2022-11-15T06:31:40;12.97;;;7.90;;
505;SDS011;551;48.524;9.056;2022-11-15T06:34:06;10.03;;;6.67;;
505;SDS011;551;48.524;9.056;2022-11-15T06:36:33;12.53;;;6.83;;
505;SDS011;551;48.524;9.056;2022-11-15T06:38:59;10.33;;;7.07;;
505;SDS011;551;48.524;9.056;2022-11-15T06:41:25;8.70;;;6.53;;
505;SDS011;551;48.524;9.056;2022-11-15T06:43:50;14.40;;;7.13;;
505;SDS011;551;48.524;9.056;2022-11-15T06:46:16;7.70;;;5.77;;
505;SDS011;551;48.524;9.056;2022-11-15T06:48:42;9.87;;;6.83;;
505;SDS011;551;48.524;9.056;2022-11-15T06:51:07;10.53;;;7.07;;
505;SDS011;551;48.524;9.056;2022-11-15T06:53:33;8.70;;;6.40;;
505;SDS011;551;48.524;9.056;2022-11-15T06:55:59;9.80;;;6.87;;
505;SDS011;551;48.524;9.056;2022-11-15T06:58:29;9.50;;;7.10;;
505;SDS011;551;48.524;9.056;2022-11-15T07:00:59;8.23;;;6.17;;
505;SDS011;551;48.524;9.056;2022-11-15T07:03:27;10.87;;;6.00;;
505;SDS011;551;48.524;9.056;2022-11-15T07:05:53;7.90;;;6.23;;
505;SDS011;551;48.524;9.056;2022-11-15T07:08:21;8.90;;;6.03;;
505;SDS011;551;48.524;9.056;2022-11-15T07:10:47;20.83;;;6.37;;
505;SDS011;551;48.524;9.056;2022-11-15T07:13:13;12.17;;;7.67;;
505;SDS011;551;48.524;9.056;2022-11-15T07:15:38;17.77;;;11.13;;
505;SDS011;551;48.524;9.056;2022-11-15T07:18:04;15.30;;;10.63;;
505;SDS011;551;48.524;9.056;2022-11-15T07:20:29;12.10;;;9.70;;
505;SDS011;551;48.524;9.056;2022-11-15T07:23:13;15.87;;;10.67;;
505;SDS011;551;48.524;9.056;2022-11-15T07:25:38;16.23;;;9.70;;
505;SDS011;551;48.524;9.056;2022-11-15T07:28:04;11.63;;;10.00;;
505;SDS011;551;48.524;9.056;2022-11-15T07:30:29;14.90;;;9.90;;
505;SDS011;551;48.524;9.056;2022-11-15T07:32:59;14.13;;;9.07;;
505;SDS011;551;48.524;9.056;2022-11-15T07:35:25;14.83;;;9.37;;
505;SDS011;551;48.524;9.056;2022-11-15T07:38:02;9.90;;;8.13;;
505;SDS011;551;48.524;9.056;2022-11-15T07:40:28;10.17;;;8.37;;
505;SDS011;551;48.524;9.056;2022-11-15T07:43:02;14.60;;;9.83;;
505;SDS011;551;48.524;9.056;2022-11-15T07:45:29;10.13;;;9.10;;
505;SDS011;551;48.524;9.056;2022-11-15T07:47:55;18.13;;;9.40;;
505;SDS011;551;48.524;9.056;2022-11-15T07:50:21;14.50;;;8.90;;
505;SDS011;551;48.524;9.056;2022-11-15T07:52:47;10.53;;;8.33;;
505;SDS011;551;48.524;9.056;2022-11-15T07:55:17;8.53;;;7.33;;
505;SDS011;551;48.524;9.056;2022-11-15T07:57:43;10.70;;;7.77;;
505;SDS011;551;48.524;9.056;2022-11-15T08:00:08;13.40;;;7.33;;
505;SDS011;551;48.524;9.056;2022-11-15T08:02:34;10.90;;;7.40;;
505;SDS011;551;48.524;9.056;2022-11-15T08:05:00;10.50;;;7.53;;
505;SDS011;551;48.524;9.056;2022-11-15T08:07:28;12.10;;;7.93;;
505;SDS011;551;48.524;9.056;2022-11-15T08:09:55;9.47;;;7.27;;
505;SDS011;551;48.524;9.056;2022-11-15T08:12:21;11.40;;;8.60;;
505;SDS011;551;48.524;9.056;2022-11-15T08:14:46;11.70;;;8.87;;
505;SDS011;551;48.524;9.056;2022-11-15T08:17:12;9.00;;;7.40;;
505;SDS011;551;48.524;9.056;2022-11-15T08:19:38;15.73;;;8.27;;
505;SDS011;551;48.524;9.056;2022-11-15T08:22:04;11.70;;;8.80;;
505;SDS011;551;48.524;9.056;2022-11-15T08:24:29;16.97;;;8.90;;
505;SDS011;551;48.524;9.056;2022-11-15T08:26:55;16.10;;;8.80;;
505;SDS011;551;48.524;9.056;2022-11-15T08:29:20;8.20;;;7.17;;
505;SDS011;551;48.524;9.056;2022-11-15T08:31:46;9.00;;;8.10;;
505;SDS011;551;48.524;9.056;2022-11-15T08:34:12;11.07;;;6.23;;
505;SDS011;551;48.524;9.056;2022-11-15T08:36:37;7.03;;;5.67;;
505;SDS011;551;48.524;9.056;2022-11-15T08:39:03;8.67;;;7.33;;
505;SDS011;551;48.524;9.056;2022-11-15T08:41:31;7.30;;;6.60;;
505;SDS011;551;48.524;9.056;2022-11-15T08:44:03;7.73;;;6.50;;
505;SDS011;551;48.524;9.056;2022-11-15T08:46:29;14.13;;;7.70;;
505;SDS011;551;48.524;9.056;2022-11-15T08:48:55;17.10;;;7.30;;
505;SDS011;551;48.524;9.056;2022-11-15T08:51:20;13.03;;;7.43;;
505;SDS011;551;48.524;9.056;2022-11-15T08:53:46;7.40;;;6.60;;
505;SDS011;551;48.524;9.056;2022-11-15T08:56:13;8.23;;;6.80;;
505;SDS011;551;48.524;9.056;2022-11-15T08:58:39;13.30;;;8.13;;
505;SDS011;551;48.524;9.056;2022-11-15T09:01:05;12.60;;;8.90;;
505;SDS011;551;48.524;9.056;2022-11-15T09:03:31;14.30;;;9.70;;
505;SDS011;551;48.524;9.056;2022-11-15T09:05:57;14.20;;;7.00;;
505;SDS011;551;48.524;9.056;2022-11-15T09:08:24;17.07;;;10.77;;
505;SDS011;551;48.524;9.056;2022-11-15T09:10:50;15.37;;;9.50;;
505;SDS011;551;48.524;9.056;2022-11-15T09:13:16;11.73;;;7.27;;
505;SDS011;551;48.524;9.056;2022-11-15T09:15:42;8.63;;;7.70;;
505;SDS011;551;48.524;9.056;2022-11-15T09:18:07;9.17;;;7.83;;
505;SDS011;551;48.524;9.056;2022-11-15T09:20:33;10.20;;;8.83;;
505;SDS011;551;48.524;9.056;2022-11-15T09:23:02;9.23;;;8.43;;
505;SDS011;551;48.524;9.056;2022-11-15T09:25:28;8.10;;;7.20;;
505;SDS011;551;48.524;9.056;2022-11-15T09:27:54;16.77;;;8.40;;
505;SDS011;551;48.524;9.056;2022-11-15T09:30:20;12.53;;;7.20;;
505;SDS011;551;48.524;9.056;2022-11-15T09:32:45;6.73;;;6.10;;
505;SDS011;551;48.524;9.056;2022-11-15T09:35:11;12.10;;;8.10;;
505;SDS011;551;48.524;9.056;2022-11-15T09:37:37;10.27;;;7.60;;
505;SDS011;551;48.524;9.056;2022-11-15T09:40:02;11.30;;;8.63;;
505;SDS011;551;48.524;9.056;2022-11-15T09:43:13;10.30;;;8.53;;
505;SDS011;551;48.524;9.056;2022-11-15T09:50:46;10.90;;;8.07;;
505;SDS011;551;48.524;9.056;2022-11-15T09:53:22;9.80;;;7.33;;
505;SDS011;551;48.524;9.056;2022-11-15T10:01:08;9.67;;;6.40;;
505;SDS011;551;48.524;9.056;2022-11-15T10:03:42;10.83;;;7.60;;
505;SDS011;551;48.524;9.056;2022-11-15T10:06:14;10.40;;;6.80;;
505;SDS011;551;48.524;9.056;2022-11-15T10:09:09;10.53;;;6.87;;
505;SDS011;551;48.524;9.056;2022-11-15T10:11:36;8.17;;;7.30;;
505;SDS011;551;48.524;9.056;2022-11-15T10:14:05;13.87;;;9.23;;
505;SDS011;551;48.524;9.056;2022-11-15T10:19:51;13.17;;;8.83;;
505;SDS011;551;48.524;9.056;2022-11-15T10:22:24;18.87;;;9.10;;
505;SDS011;551;48.524;9.056;2022-11-15T10:24:50;12.60;;;8.83;;
505;SDS011;551;48.524;9.056;2022-11-15T10:27:25;13.13;;;7.07;;
505;SDS011;551;48.524;9.056;2022-11-15T10:29:51;11.90;;;6.87;;
505;SDS011;551;48.524;9.056;2022-11-15T10:32:18;10.00;;;6.80;;
505;SDS011;551;48.524;9.056;2022-11-15T10:34:45;12.30;;;6.50;;
505;SDS011;551;48.524;9.056;2022-11-15T10:37:12;15.03;;;8.10;;
505;SDS011;551;48.524;9.056;2022-11-15T10:39:38;13.00;;;7.57;;
505;SDS011;551;48.524;9.056;2022-11-15T10:45:01;15.00;;;8.00;;
505;SDS011;551;48.524;9.056;2022-11-15T10:47:28;8.83;;;6.20;;
505;SDS011;551;48.524;9.056;2022-11-15T10:49:59;9.00;;;6.67;;
505;SDS011;551;48.524;9.056;2022-11-15T10:52:26;10.30;;;6.30;;
505;SDS011;551;48.524;9.056;2022-11-15T10:57:22;12.10;;;6.50;;
505;SDS011;551;48.524;9.056;2022-11-15T10:59:52;10.80;;;5.50;;
505;SDS011;551;48.524;9.056;2022-11-15T11:03:03;10.67;;;6.90;;
505;SDS011;551;48.524;9.056;2022-11-15T11:05:37;11.47;;;6.37;;
505;SDS011;551;48.524;9.056;2022-11-15T11:08:05;7.70;;;6.03;;
505;SDS011;551;48.524;9.056;2022-11-15T11:10:56;8.17;;;5.70;;
505;SDS011;551;48.524;9.056;2022-11-15T11:13:24;8.57;;;5.67;;
505;SDS011;551;48.524;9.056;2022-11-15T11:18:40;11.23;;;5.77;;
505;SDS011;551;48.524;9.056;2022-11-15T11:21:10;8.70;;;6.17;;
505;SDS011;551;48.524;9.056;2022-11-15T11:23:43;11.70;;;6.87;;
505;SDS011;551;48.524;9.056;2022-11-15T11:31:48;8.50;;;5.50;;
505;SDS011;551;48.524;9.056;2022-11-15T11:34:46;7.33;;;5.67;;
505;SDS011;551;48.524;9.056;2022-11-15T11:45:44;9.23;;;5.83;;
505;SDS011;551;48.524;9.056;2022-11-15T11:48:31;6.57;;;5.97;;
505;SDS011;551;48.524;9.056;2022-11-15T11:51:27;9.73;;;5.60;;
505;SDS011;551;48.524;9.056;2022-11-15T11:56:36;6.73;;;5.00;;
505;SDS011;551;48.524;9.056;2022-11-15T11:59:22;5.23;;;4.40;;
505;SDS011;551;48.524;9.056;2022-11-15T12:01:53;10.20;;;5.20;;
505;SDS011;551;48.524;9.056;2022-11-15T12:04:35;8.83;;;5.00;;
505;SDS011;551;48.524;9.056;2022-11-15T12:07:11;9.70;;;5.23;;
505;SDS011;551;48.524;9.056;2022-11-15T12:09:55;15.10;;;6.17;;
505;SDS011;551;48.524;9.056;2022-11-15T12:15:35;12.40;;;7.30;;
505;SDS011;551;48.524;9.056;2022-11-15T12:18:07;12.50;;;6.00;;
505;SDS011;551;48.524;9.056;2022-11-15T12:20:39;6.83;;;5.30;;
505;SDS011;551;48.524;9.056;2022-11-15T12:23:28;9.07;;;6.50;;
505;SDS011;551;48.524;9.056;2022-11-15T12:26:01;9.60;;;6.77;;
505;SDS011;551;48.524;9.056;2022-11-15T12:36:45;12.57;;;6.10;;
505;SDS011;551;48.524;9.056;2022-11-15T12:39:13;10.40;;;5.43;;
505;SDS011;551;48.524;9.056;2022-11-15T12:41:40;14.40;;;6.90;;
505;SDS011;551;48.524;9.056;2022-11-15T12:44:11;8.43;;;6.03;;
505;SDS011;551;48.524;9.056;2022-11-15T12:49:10;7.97;;;5.60;;
505;SDS011;551;48.524;9.056;2022-11-15T13:02:18;7.27;;;5.83;;
505;SDS011;551;48.524;9.056;2022-11-15T13:04:45;14.30;;;6.00;;
505;SDS011;551;48.524;9.056;2022-11-15T13:09:59;18.83;;;7.47;;
505;SDS011;551;48.524;9.056;2022-11-15T13:14:52;7.73;;;5.43;;
505;SDS011;551;48.524;9.056;2022-11-15T13:17:31;7.13;;;5.80;;
505;SDS011;551;48.524;9.056;2022-11-15T13:28:50;7.00;;;5.60;;
505;SDS011;551;48.524;9.056;2022-11-15T13:30:51;7.53;;;6.17;;
505;SDS011;551;48.524;9.056;2022-11-15T13:33:25;13.00;;;7.23;;
505;SDS011;551;48.524;9.056;2022-11-15T13:36:05;10.53;;;6.93;;
505;SDS011;551;48.524;9.056;2022-11-15T13:38:38;8.10;;;6.40;;
505;SDS011;551;48.524;9.056;2022-11-15T13:41:13;10.00;;;7.50;;
505;SDS011;551;48.524;9.056;2022-11-15T13:43:44;10.10;;;6.27;;
505;SDS011;551;48.524;9.056;2022-11-15T13:46:28;10.30;;;6.57;;
505;SDS011;551;48.524;9.056;2022-11-15T13:48:59;11.80;;;6.50;;
505;SDS011;551;48.524;9.056;2022-11-15T13:51:28;11.83;;;7.07;;
505;SDS011;551;48.524;9.056;2022-11-15T13:59:54;7.83;;;6.37;;
505;SDS011;551;48.524;9.056;2022-11-15T14:02:25;10.60;;;7.50;;
505;SDS011;551;48.524;9.056;2022-11-15T14:04:53;13.00;;;7.07;;
505;SDS011;551;48.524;9.056;2022-11-15T14:07:25;12.07;;;7.10;;
505;SDS011;551;48.524;9.056;2022-11-15T14:09:53;9.67;;;7.13;;
505;SDS011;551;48.524;9.056;2022-11-15T14:15:17;10.30;;;8.30;;
505;SDS011;551;48.524;9.056;2022-11-15T14:18:04;19.80;;;8.10;;
505;SDS011;551;48.524;9.056;2022-11-15T14:20:37;14.67;;;8.60;;
505;SDS011;551;48.524;9.056;2022-11-15T14:23:23;12.43;;;8.07;;
505;SDS011;551;48.524;9.056;2022-11-15T14:25:57;9.60;;;6.80;;
505;SDS011;551;48.524;9.056;2022-11-15T14:30:50;15.70;;;9.33;;
505;SDS011;551;48.524;9.056;2022-11-15T14:35:47;11.90;;;8.20;;
505;SDS011;551;48.524;9.056;2022-11-15T14:38:13;17.43;;;9.63;;
505;SDS011;551;48.524;9.056;2022-11-15T14:40:39;12.70;;;8.97;;
505;SDS011;551;48.524;9.056;2022-11-15T14:43:07;9.43;;;8.20;;
505;SDS011;551;48.524;9.056;2022-11-15T14:45:35;9.70;;;8.67;;
505;SDS011;551;48.524;9.056;2022-11-15T14:48:00;9.23;;;8.20;;
505;SDS011;551;48.524;9.056;2022-11-15T14:50:26;11.10;;;7.63;;
505;SDS011;551;48.524;9.056;2022-11-15T14:52:52;13.07;;;8.20;;
505;SDS011;551;48.524;9.056;2022-11-15T14:55:25;17.93;;;8.23;;
505;SDS011;551;48.524;9.056;2022-11-15T14:57:53;11.20;;;7.80;;
505;SDS011;551;48.524;9.056;2022-11-15T15:00:19;14.27;;;7.83;;
505;SDS011;551;48.524;9.056;2022-11-15T15:02:46;13.63;;;9.00;;
505;SDS011;551;48.524;9.056;2022-11-15T15:05:17;14.43;;;8.70;;
505;SDS011;551;48.524;9.056;2022-11-15T15:07:44;16.17;;;9.00;;
505;SDS011;551;48.524;9.056;2022-11-15T15:10:10;13.80;;;8.00;;
505;SDS011;551;48.524;9.056;2022-11-15T15:12:37;9.87;;;7.20;;
505;SDS011;551;48.524;9.056;2022-11-15T15:15:02;11.50;;;8.10;;
505;SDS011;551;48.524;9.056;2022-11-15T15:17:28;10.77;;;8.57;;
505;SDS011;551;48.524;9.056;2022-11-15T15:19:54;11.17;;;7.30;;
505;SDS011;551;48.524;9.056;2022-11-15T15:22:19;9.20;;;6.73;;
505;SDS011;551;48.524;9.056;2022-11-15T15:24:50;9.73;;;7.70;;
505;SDS011;551;48.524;9.056;2022-11-15T15:27:16;9.67;;;6.80;;
505;SDS011;551;48.524;9.056;2022-11-15T15:29:41;12.57;;;7.83;;
505;SDS011;551;48.524;9.056;2022-11-15T15:32:07;11.20;;;8.10;;
505;SDS011;551;48.524;9.056;2022-11-15T15:34:33;10.90;;;8.80;;
505;SDS011;551;48.524;9.056;2022-11-15T15:39:47;11.53;;;8.00;;
505;SDS011;551;48.524;9.056;2022-11-15T15:42:13;12.13;;;8.77;;
505;SDS011;551;48.524;9.056;2022-11-15T15:44:38;12.20;;;9.33;;
505;SDS011;551;48.524;9.056;2022-11-15T15:47:09;12.47;;;9.10;;
505;SDS011;551;48.524;9.056;2022-11-15T15:49:37;14.63;;;9.47;;
505;SDS011;551;48.524;9.056;2022-11-15T15:52:02;12.10;;;9.00;;
505;SDS011;551;48.524;9.056;2022-11-15T15:54:28;9.67;;;8.17;;
505;SDS011;551;48.524;9.056;2022-11-15T15:56:53;11.30;;;8.13;;
505;SDS011;551;48.524;9.056;2022-11-15T15:59:19;17.20;;;8.07;;
505;SDS011;551;48.524;9.056;2022-11-15T16:01:44;11.97;;;7.90;;
505;SDS011;551;48.524;9.056;2022-11-15T16:04:10;12.67;;;8.40;;
505;SDS011;551;48.524;9.056;2022-11-15T16:06:37;11.73;;;8.37;;
505;SDS011;551;48.524;9.056;2022-11-15T16:09:04;12.90;;;8.63;;
505;SDS011;551;48.524;9.056;2022-11-15T16:11:30;13.17;;;7.70;;
505;SDS011;551;48.524;9.056;2022-11-15T16:13:56;8.50;;;6.63;;
505;SDS011;551;48.524;9.056;2022-11-15T16:16:23;11.23;;;8.07;;
505;SDS011;551;48.524;9.056;2022-11-15T16:18:49;8.87;;;6.80;;
505;SDS011;551;48.524;9.056;2022-11-15T16:21:15;9.80;;;7.10;;
505;SDS011;551;48.524;9.056;2022-11-15T16:23:40;9.40;;;7.13;;
505;SDS011;551;48.524;9.056;2022-11-15T16:26:14;16.53;;;8.70;;
505;SDS011;551;48.524;9.056;2022-11-15T16:28:48;13.20;;;9.00;;
505;SDS011;551;48.524;9.056;2022-11-15T16:31:14;12.43;;;8.80;;
505;SDS011;551;48.524;9.056;2022-11-15T16:33:43;14.17;;;8.50;;
505;SDS011;551;48.524;9.056;2022-11-15T16:38:45;13.10;;;9.13;;
505;SDS011;551;48.524;9.056;2022-11-15T16:41:11;13.60;;;8.93;;
505;SDS011;551;48.524;9.056;2022-11-15T16:43:36;14.07;;;9.33;;
505;SDS011;551;48.524;9.056;2022-11-15T16:46:06;10.60;;;8.87;;
505;SDS011;551;48.524;9.056;2022-11-15T16:48:37;15.53;;;9.57;;
505;SDS011;551;48.524;9.056;2022-11-15T16:51:04;11.50;;;9.57;;
505;SDS011;551;48.524;9.056;2022-11-15T16:53:29;16.00;;;10.73;;
505;SDS011;551;48.524;9.056;2022-11-15T16:55:55;14.27;;;9.77;;
505;SDS011;551;48.524;9.056;2022-11-15T16:58:22;11.93;;;9.27;;
505;SDS011;551;48.524;9.056;2022-11-15T17:00:51;14.13;;;8.90;;
505;SDS011;551;48.524;9.056;2022-11-15T17:03:20;10.80;;;9.17;;
505;SDS011;551;48.524;9.056;2022-11-15T17:05:47;14.77;;;9.77;;
505;SDS011;551;48.524;9.056;2022-11-15T17:08:13;14.00;;;9.30;;
505;SDS011;551;48.524;9.056;2022-11-15T17:10:39;15.60;;;11.10;;
505;SDS011;551;48.524;9.056;2022-11-15T17:13:11;16.73;;;11.23;;
505;SDS011;551;48.524;9.056;2022-11-15T17:15:37;17.40;;;12.63;;
505;SDS011;551;48.524;9.056;2022-11-15T17:18:02;16.40;;;10.80;;
505;SDS011;551;48.524;9.056;2022-11-15T17:20:28;16.20;;;10.80;;
505;SDS011;551;48.524;9.056;2022-11-15T17:22:54;15.67;;;11.13;;
505;SDS011;551;48.524;9.056;2022-11-15T17:25:20;17.27;;;11.13;;
505;SDS011;551;48.524;9.056;2022-11-15T17:27:45;14.03;;;11.23;;
505;SDS011;551;48.524;9.056;2022-11-15T17:30:12;18.37;;;13.20;;
505;SDS011;551;48.524;9.056;2022-11-15T17:32:39;17.43;;;10.97;;
505;SDS011;551;48.524;9.056;2022-11-15T17:35:05;18.10;;;12.13;;
505;SDS011;551;48.524;9.056;2022-11-15T17:37:31;18.00;;;12.40;;
505;SDS011;551;48.524;9.056;2022-11-15T17:39:57;16.90;;;11.60;;